Simmons, Missouri
Current Conditions -  °F | °C
As of 9:53 PM on Tuesday 21 Oct 2014 (Local Time) from KUNO Reporting Station
Clear Clear  
Wind Chill: 11°   Ceiling: Unl
Heat Index: 11°   Visibility: 10mi
Dew Point:   Wind: 6mph
Humidity: 77%   Direction: 50°NE
Pressure: 30.15"   Gusts: NA
Location:  37.3091°N, 91.9516°W
Report Text: KUNO 220253Z AUTO 05005KT 10SM CLR 11/07 A3015 RMK AO2 SLP205 T01110072 53016
Loading
Personal Weather Stations






























Interactive Weather Map
Tropical Storm Tracking
New forecast layout! Learn more

10-Day Weather Forecast

Advertisements
Track Severe Weather on mobile